createdAt,value
2022-09-22T00:01:08.190Z,2.75
2022-09-22T00:03:43.023Z,2.53
2022-09-22T00:06:11.119Z,5.43
2022-09-22T00:08:40.256Z,10.02
2022-09-22T00:11:13.684Z,1.92
2022-09-22T00:13:41.152Z,6.82
2022-09-22T00:16:09.622Z,3.63
2022-09-22T00:18:36.388Z,2.28
2022-09-22T00:21:09.244Z,3.85
2022-09-22T00:23:36.956Z,3.10
2022-09-22T00:26:12.271Z,2.60
2022-09-22T00:28:41.491Z,1.52
2022-09-22T00:31:11.462Z,2.63
2022-09-22T00:33:39.266Z,3.15
2022-09-22T00:36:06.185Z,1.63
2022-09-22T00:38:33.540Z,2.78
2022-09-22T00:41:01.470Z,2.13
2022-09-22T00:43:30.793Z,2.47
2022-09-22T00:46:29.686Z,2.10
2022-09-22T00:49:01.962Z,2.25
2022-09-22T00:51:34.283Z,2.70
2022-09-22T00:54:04.384Z,5.80
2022-09-22T00:56:55.189Z,2.22
2022-09-22T00:59:24.860Z,7.13
2022-09-22T01:01:51.954Z,4.57
2022-09-22T01:04:19.072Z,2.72
2022-09-22T01:06:46.036Z,2.17
2022-09-22T01:09:13.339Z,8.75
2022-09-22T01:11:41.407Z,2.72
2022-09-22T01:14:13.935Z,5.78
2022-09-22T01:17:14.785Z,8.43
2022-09-22T01:20:12.170Z,2.55
2022-09-22T01:22:57.043Z,5.30
2022-09-22T01:25:39.098Z,3.75
2022-09-22T01:28:20.892Z,3.40
2022-09-22T01:31:15.424Z,4.43
2022-09-22T01:33:53.860Z,3.83
2022-09-22T01:36:29.865Z,5.57
2022-09-22T01:39:20.937Z,3.42
2022-09-22T01:42:05.825Z,3.97
2022-09-22T01:45:01.546Z,4.97
2022-09-22T01:47:40.478Z,5.10
2022-09-22T01:50:18.266Z,4.63
2022-09-22T01:52:45.200Z,5.95
2022-09-22T01:55:38.503Z,3.53
2022-09-22T01:58:24.064Z,5.47
2022-09-22T02:00:59.360Z,3.83
2022-09-22T02:03:38.982Z,7.65
2022-09-22T02:06:31.635Z,6.78
2022-09-22T02:09:06.916Z,9.55
2022-09-22T02:11:34.024Z,3.47
2022-09-22T02:14:02.519Z,2.22
2022-09-22T02:16:29.521Z,2.20
2022-09-22T02:19:13.387Z,9.73
2022-09-22T02:21:43.646Z,2.05
2022-09-22T02:24:34.858Z,2.17
2022-09-22T02:27:35.651Z,2.33
2022-09-22T02:30:08.095Z,6.78
2022-09-22T02:32:37.432Z,3.63
2022-09-22T02:35:04.825Z,1.77
2022-09-22T02:38:02.313Z,2.30
2022-09-22T02:41:00.317Z,3.78
2022-09-22T02:44:08.523Z,8.68
2022-09-22T02:46:45.969Z,3.88
2022-09-22T02:49:18.018Z,4.68
2022-09-22T02:51:48.018Z,7.88
2022-09-22T02:54:17.321Z,4.50
2022-09-22T02:56:44.062Z,3.10
2022-09-22T02:59:11.140Z,2.35
2022-09-22T03:01:38.171Z,3.47
2022-09-22T03:04:05.674Z,4.57
2022-09-22T03:06:32.646Z,6.57
2022-09-22T03:08:59.326Z,3.78
2022-09-22T03:11:27.082Z,4.05
2022-09-22T03:13:54.594Z,13.15
2022-09-22T03:16:21.319Z,7.97
2022-09-22T03:18:47.999Z,4.97
2022-09-22T03:21:14.522Z,4.70
2022-09-22T03:23:41.156Z,9.45
2022-09-22T03:26:07.641Z,3.97
2022-09-22T03:28:34.245Z,7.28
2022-09-22T03:31:00.896Z,13.93
2022-09-22T03:33:27.513Z,6.32
2022-09-22T03:35:54.064Z,5.07
2022-09-22T03:38:20.547Z,3.78
2022-09-22T03:40:51.188Z,3.50
2022-09-22T03:43:17.843Z,5.20
2022-09-22T03:45:44.794Z,4.95
2022-09-22T03:48:11.575Z,2.08
2022-09-22T03:50:38.040Z,5.10
2022-09-22T03:53:04.586Z,7.18
2022-09-22T03:55:31.112Z,2.53
2022-09-22T03:57:57.626Z,3.35
2022-09-22T04:00:24.110Z,3.75
2022-09-22T04:02:50.652Z,6.53
2022-09-22T04:05:17.279Z,4.97
2022-09-22T04:07:44.412Z,9.00
2022-09-22T04:10:10.978Z,2.97
2022-09-22T04:12:37.558Z,2.95
2022-09-22T04:15:04.777Z,5.18
2022-09-22T04:17:31.307Z,4.32
2022-09-22T04:19:57.908Z,5.28
2022-09-22T04:22:24.728Z,5.25
2022-09-22T04:24:51.207Z,6.95
2022-09-22T04:27:20.568Z,3.67
2022-09-22T04:29:48.283Z,3.75
2022-09-22T04:32:15.803Z,8.85
2022-09-22T04:34:43.042Z,8.25
2022-09-22T04:37:10.592Z,4.88
2022-09-22T04:39:37.430Z,3.95
2022-09-22T04:42:04.361Z,3.67
2022-09-22T04:44:34.753Z,5.43
2022-09-22T04:47:01.952Z,4.82
2022-09-22T04:49:28.437Z,3.65
2022-09-22T04:51:55.140Z,4.43
2022-09-22T04:54:21.636Z,3.97
2022-09-22T04:56:48.195Z,6.93
2022-09-22T04:59:14.722Z,3.55
2022-09-22T05:01:41.517Z,3.50
2022-09-22T05:04:08.113Z,3.15
2022-09-22T05:06:34.718Z,8.65
2022-09-22T05:09:03.076Z,3.90
2022-09-22T05:11:30.135Z,4.93
2022-09-22T05:13:58.520Z,4.38
2022-09-22T05:16:26.385Z,3.35
2022-09-22T05:18:53.669Z,6.22
2022-09-22T05:21:20.242Z,4.95
2022-09-22T05:23:46.790Z,6.25
2022-09-22T05:26:13.771Z,6.38
2022-09-22T05:28:40.821Z,3.85
2022-09-22T05:31:07.810Z,3.33
2022-09-22T05:33:34.618Z,4.32
2022-09-22T05:36:01.380Z,5.53
2022-09-22T05:38:28.798Z,4.25
2022-09-22T05:40:55.380Z,4.43
2022-09-22T05:43:21.874Z,5.72
2022-09-22T05:45:48.519Z,2.72
2022-09-22T05:48:15.074Z,2.72
2022-09-22T05:50:43.765Z,3.42
2022-09-22T05:53:10.585Z,4.10
2022-09-22T05:55:39.022Z,5.53
2022-09-22T05:58:05.959Z,6.50
2022-09-22T06:00:32.773Z,3.67
2022-09-22T06:02:59.436Z,2.70
2022-09-22T06:05:26.583Z,6.15
2022-09-22T06:08:03.385Z,4.30
2022-09-22T06:10:31.830Z,3.60
2022-09-22T06:13:00.431Z,3.78
2022-09-22T06:15:28.518Z,5.55
2022-09-22T06:17:56.310Z,8.35
2022-09-22T06:20:23.441Z,4.80
2022-09-22T06:22:49.945Z,3.28
2022-09-22T06:25:16.610Z,4.40
2022-09-22T06:27:43.968Z,4.70
2022-09-22T06:30:11.788Z,3.92
2022-09-22T06:32:43.728Z,2.75
2022-09-22T06:35:10.839Z,5.75
2022-09-22T06:37:38.436Z,7.82
2022-09-22T06:40:08.199Z,4.57
2022-09-22T06:42:35.555Z,3.65
2022-09-22T06:45:04.404Z,3.58
2022-09-22T06:47:32.383Z,3.72
2022-09-22T06:49:58.888Z,4.65
2022-09-22T06:52:27.086Z,5.78
2022-09-22T06:54:56.331Z,2.90
2022-09-22T06:57:22.938Z,5.70
2022-09-22T06:59:49.633Z,5.18
2022-09-22T07:02:16.397Z,3.53
2022-09-22T07:04:43.081Z,8.68
2022-09-22T07:07:09.900Z,3.75
2022-09-22T07:09:36.596Z,8.02
2022-09-22T07:12:03.200Z,1.98
2022-09-22T07:14:29.891Z,3.50
2022-09-22T07:16:56.647Z,3.85
2022-09-22T07:19:23.226Z,6.22
2022-09-22T07:21:49.729Z,5.38
2022-09-22T07:24:16.493Z,4.43
2022-09-22T07:26:43.840Z,7.05
2022-09-22T07:29:13.322Z,8.32
2022-09-22T07:31:41.350Z,5.00
2022-09-22T07:34:07.965Z,4.07
2022-09-22T07:36:34.678Z,7.40
2022-09-22T07:39:07.625Z,4.40
2022-09-22T07:41:44.271Z,7.57
2022-09-22T07:44:32.453Z,5.13
2022-09-22T07:46:59.614Z,5.63
2022-09-22T07:49:26.875Z,3.63
2022-09-22T07:51:57.372Z,7.63
2022-09-22T07:54:25.615Z,6.78
2022-09-22T07:56:57.982Z,3.05
2022-09-22T07:59:25.092Z,2.80
2022-09-22T08:01:52.253Z,9.30
2022-09-22T08:04:22.647Z,3.13
2022-09-22T08:06:52.958Z,2.78
2022-09-22T08:09:19.840Z,3.65
2022-09-22T08:11:48.493Z,2.85
2022-09-22T08:14:21.468Z,2.25
2022-09-22T08:16:51.391Z,1.98
2022-09-22T08:19:18.349Z,5.00
2022-09-22T08:21:51.996Z,5.65
2022-09-22T08:24:23.508Z,2.10
2022-09-22T08:26:52.571Z,2.78
2022-09-22T08:29:19.367Z,3.35
2022-09-22T08:31:47.325Z,3.17
2022-09-22T08:34:16.220Z,3.13
2022-09-22T08:36:49.114Z,7.53
2022-09-22T08:39:17.562Z,2.85
2022-09-22T08:42:08.125Z,5.00
2022-09-22T08:44:42.092Z,3.60
2022-09-22T08:47:16.629Z,1.83
2022-09-22T08:50:08.867Z,2.30
2022-09-22T08:52:47.628Z,4.88
2022-09-22T08:55:20.933Z,3.53
2022-09-22T08:58:03.282Z,3.03
2022-09-22T09:00:42.638Z,5.07
2022-09-22T09:03:31.505Z,2.15
2022-09-22T09:06:04.448Z,5.85
2022-09-22T09:08:54.768Z,2.13
2022-09-22T09:11:40.780Z,1.92
2022-09-22T09:14:16.243Z,3.42
2022-09-22T09:16:46.692Z,1.98
2022-09-22T09:19:25.859Z,3.05
2022-09-22T09:22:00.184Z,3.67
2022-09-22T09:27:21.628Z,4.72
2022-09-22T09:29:58.926Z,1.10
2022-09-22T09:32:36.156Z,1.05
2022-09-22T09:37:36.900Z,1.45
2022-09-22T09:40:06.873Z,1.83
2022-09-22T09:42:36.700Z,6.90
2022-09-22T09:45:04.010Z,2.65
2022-09-22T09:47:59.115Z,7.05
2022-09-22T09:50:31.870Z,3.97
2022-09-22T09:52:59.857Z,1.15
2022-09-22T09:55:27.570Z,2.90
2022-09-22T09:58:32.190Z,2.33
2022-09-22T10:01:00.409Z,2.25
2022-09-22T10:03:30.245Z,2.08
2022-09-22T10:06:06.149Z,3.90
2022-09-22T10:08:41.569Z,2.95
2022-09-22T10:11:10.295Z,2.45
2022-09-22T10:13:39.086Z,1.98
2022-09-22T10:16:06.140Z,2.40
2022-09-22T10:18:39.254Z,5.93
2022-09-22T10:21:16.444Z,2.90
2022-09-22T10:23:46.592Z,1.63
2022-09-22T10:26:20.627Z,4.85
2022-09-22T10:29:12.421Z,2.00
2022-09-22T10:31:40.614Z,3.45
2022-09-22T10:34:35.635Z,3.80
2022-09-22T10:37:10.391Z,5.50
2022-09-22T10:39:43.030Z,2.03
2022-09-22T10:42:35.411Z,4.65
2022-09-22T10:45:11.659Z,2.72
2022-09-22T10:48:17.019Z,1.98
2022-09-22T10:50:56.036Z,0.60
2022-09-22T10:53:45.686Z,2.30
2022-09-22T10:56:33.938Z,2.20
2022-09-22T10:59:12.862Z,3.90
2022-09-22T11:01:48.773Z,1.77
2022-09-22T11:04:25.444Z,1.30
2022-09-22T11:07:44.307Z,1.38
2022-09-22T11:11:14.461Z,2.28
2022-09-22T11:13:59.440Z,1.90
2022-09-22T11:16:55.304Z,2.40
2022-09-22T11:19:31.135Z,2.55
2022-09-22T11:22:30.076Z,1.50
2022-09-22T11:25:22.348Z,1.23
2022-09-22T11:28:04.298Z,1.45
2022-09-22T11:30:40.095Z,3.28
2022-09-22T11:33:09.909Z,2.03
2022-09-22T11:35:42.885Z,2.90
2022-09-22T11:38:19.075Z,1.65
2022-09-22T11:41:17.726Z,1.63
2022-09-22T11:44:02.103Z,1.27
2022-09-22T11:47:04.850Z,1.70
2022-09-22T11:49:50.078Z,1.92
2022-09-22T11:52:22.575Z,1.10
2022-09-22T11:55:16.793Z,1.30
2022-09-22T11:57:51.014Z,4.60
2022-09-22T12:00:20.993Z,3.00
2022-09-22T12:02:54.962Z,0.90
2022-09-22T12:05:41.499Z,0.70
2022-09-22T12:08:37.127Z,1.80
2022-09-22T12:11:07.977Z,0.80
2022-09-22T12:13:37.031Z,2.70
2022-09-22T12:16:42.263Z,0.70
2022-09-22T12:19:34.654Z,2.13
2022-09-22T12:22:46.003Z,3.15
2022-09-22T12:25:21.157Z,3.80
2022-09-22T12:28:01.322Z,0.80
2022-09-22T12:30:27.909Z,0.95
2022-09-22T12:32:54.509Z,0.80
2022-09-22T12:35:31.044Z,0.73
2022-09-22T12:38:02.142Z,1.85
2022-09-22T12:40:41.465Z,0.85
2022-09-22T12:43:19.074Z,0.70
2022-09-22T12:45:47.131Z,1.17
2022-09-22T12:48:22.611Z,1.15
2022-09-22T12:53:22.221Z,1.38
2022-09-22T12:55:54.122Z,2.13
2022-09-22T12:58:20.735Z,0.73
2022-09-22T13:00:49.548Z,1.60
2022-09-22T13:03:25.465Z,0.82
2022-09-22T13:05:53.206Z,0.88
2022-09-22T13:08:24.638Z,0.50
2022-09-22T13:11:02.791Z,0.65
2022-09-22T13:13:29.236Z,1.50
2022-09-22T13:15:59.409Z,0.65
2022-09-22T13:18:39.854Z,1.70
2022-09-22T13:21:12.146Z,1.23
2022-09-22T13:24:00.140Z,0.52
2022-09-22T13:26:33.386Z,0.98
2022-09-22T13:29:03.616Z,1.85
2022-09-22T13:31:43.702Z,2.35
2022-09-22T13:34:20.809Z,0.80
2022-09-22T13:36:48.785Z,1.08
2022-09-22T13:39:19.588Z,1.40
2022-09-22T13:41:51.075Z,0.55
2022-09-22T13:44:25.034Z,0.65
2022-09-22T13:46:52.591Z,0.65
2022-09-22T13:49:29.299Z,0.60
2022-09-22T13:51:59.280Z,0.80
2022-09-22T13:54:29.310Z,1.67
2022-09-22T13:56:57.453Z,3.60
2022-09-22T13:59:27.322Z,0.75
2022-09-22T14:01:54.805Z,4.82
2022-09-22T14:04:27.338Z,0.80
2022-09-22T14:06:59.081Z,0.60
2022-09-22T14:09:26.535Z,3.15
2022-09-22T14:11:54.861Z,0.43
2022-09-22T14:14:27.041Z,2.38
2022-09-22T14:17:20.635Z,3.53
2022-09-22T14:20:09.401Z,0.82
2022-09-22T14:22:42.881Z,0.85
2022-09-22T14:25:21.004Z,0.40
2022-09-22T14:27:55.431Z,2.90
2022-09-22T14:30:30.150Z,0.50
2022-09-22T14:33:03.136Z,1.47
2022-09-22T14:35:32.151Z,0.43
2022-09-22T14:38:10.464Z,1.10
2022-09-22T14:40:50.694Z,1.00
2022-09-22T14:43:24.726Z,1.15
2022-09-22T14:46:08.690Z,0.98
2022-09-22T14:48:36.493Z,0.95
2022-09-22T14:51:17.195Z,0.47
2022-09-22T14:53:48.565Z,0.60
2022-09-22T14:56:22.946Z,0.80
2022-09-22T14:58:52.292Z,1.85
2022-09-22T15:01:40.797Z,1.58
2022-09-22T15:04:22.146Z,0.40
2022-09-22T15:06:51.483Z,3.90
2022-09-22T15:09:31.780Z,0.52
2022-09-22T15:12:02.045Z,1.52
2022-09-22T15:14:41.263Z,0.43
2022-09-22T15:17:54.515Z,1.58
2022-09-22T15:20:24.782Z,0.95
2022-09-22T15:22:53.837Z,1.98
2022-09-22T15:25:21.206Z,0.45
2022-09-22T15:27:49.754Z,1.80
2022-09-22T15:30:17.005Z,0.40
2022-09-22T15:32:46.345Z,0.90
2022-09-22T15:35:13.738Z,2.97
2022-09-22T15:37:42.046Z,1.75
2022-09-22T15:40:21.404Z,1.17
2022-09-22T15:43:09.094Z,1.25
2022-09-22T15:45:37.656Z,1.40
2022-09-22T15:48:04.646Z,1.00
2022-09-22T15:50:31.282Z,4.32
2022-09-22T15:52:58.752Z,1.05
2022-09-22T15:55:25.406Z,1.88
2022-09-22T15:57:55.205Z,0.60
2022-09-22T16:00:27.474Z,1.08
2022-09-22T16:02:54.578Z,0.60
2022-09-22T16:05:21.228Z,0.77
2022-09-22T16:07:51.591Z,0.55
2022-09-22T16:10:23.389Z,2.05
2022-09-22T16:12:51.124Z,1.13
2022-09-22T16:15:18.037Z,0.65
2022-09-22T16:17:45.827Z,1.17
2022-09-22T16:20:14.731Z,3.42
2022-09-22T16:22:41.842Z,1.95
2022-09-22T16:25:11.188Z,3.60
2022-09-22T16:27:38.576Z,1.80
2022-09-22T16:30:06.011Z,1.90
2022-09-22T16:32:36.165Z,1.65
2022-09-22T16:35:03.761Z,2.58
2022-09-22T16:37:30.385Z,1.20
2022-09-22T16:39:57.172Z,0.73
2022-09-22T16:42:24.171Z,0.77
2022-09-22T16:44:50.858Z,1.02
2022-09-22T16:47:22.889Z,1.27
2022-09-22T16:49:51.829Z,0.80
2022-09-22T16:52:19.947Z,4.65
2022-09-22T16:54:46.675Z,0.60
2022-09-22T16:57:13.263Z,0.60
2022-09-22T16:59:39.789Z,1.05
2022-09-22T17:02:06.362Z,1.30
2022-09-22T17:04:33.111Z,4.63
2022-09-22T17:06:59.763Z,1.40
2022-09-22T17:09:26.931Z,1.15
2022-09-22T17:11:53.561Z,0.77
2022-09-22T17:14:21.454Z,4.80
2022-09-22T17:16:51.751Z,2.97
2022-09-22T17:19:21.089Z,3.53
2022-09-22T17:21:50.883Z,1.00
2022-09-22T17:24:19.175Z,1.15
2022-09-22T17:26:48.341Z,0.68
2022-09-22T17:29:23.531Z,0.68
2022-09-22T17:34:24.618Z,5.30
2022-09-22T17:36:52.432Z,1.13
2022-09-22T17:39:19.060Z,1.60
2022-09-22T17:41:46.617Z,2.00
2022-09-22T17:44:16.926Z,2.63
2022-09-22T17:47:02.058Z,2.30
2022-09-22T17:49:47.424Z,4.68
2022-09-22T17:52:34.558Z,8.43
2022-09-22T17:55:12.580Z,9.98
2022-09-22T17:57:43.986Z,3.30
2022-09-22T18:00:13.045Z,3.58
2022-09-22T18:02:39.899Z,2.70
2022-09-22T18:05:09.872Z,5.75
2022-09-22T18:07:38.169Z,3.67
2022-09-22T18:10:06.868Z,9.38
2022-09-22T18:12:34.152Z,5.70
2022-09-22T18:15:04.147Z,7.55
2022-09-22T18:17:34.280Z,8.10
2022-09-22T18:20:01.025Z,6.85
2022-09-22T18:22:29.297Z,8.48
2022-09-22T18:24:56.147Z,6.43
2022-09-22T18:27:26.849Z,5.47
2022-09-22T18:29:58.168Z,7.18
2022-09-22T18:32:26.796Z,7.47
2022-09-22T18:34:55.159Z,10.00
2022-09-22T18:37:23.460Z,7.78
2022-09-22T18:39:50.478Z,10.00
2022-09-22T18:42:24.045Z,8.05
2022-09-22T18:44:51.608Z,10.02
2022-09-22T18:47:20.327Z,15.18
2022-09-22T18:49:51.229Z,11.77
2022-09-22T18:52:23.702Z,26.67
2022-09-22T18:54:53.150Z,25.65
2022-09-22T18:57:22.307Z,25.50
2022-09-22T18:59:50.729Z,33.80
2022-09-22T19:02:22.345Z,39.15
2022-09-22T19:04:49.986Z,44.88
2022-09-22T19:07:40.353Z,49.83
2022-09-22T19:10:10.537Z,49.25
2022-09-22T19:12:39.310Z,49.40
2022-09-22T19:15:16.262Z,51.15
2022-09-22T19:17:44.573Z,57.95
2022-09-22T19:20:23.618Z,60.92
2022-09-22T19:22:52.963Z,47.28
2022-09-22T19:25:21.403Z,51.40
2022-09-22T19:27:48.481Z,38.83
2022-09-22T19:30:16.329Z,34.85
2022-09-22T19:32:46.621Z,35.42
2022-09-22T19:35:13.926Z,25.98
2022-09-22T19:37:41.345Z,26.20
2022-09-22T19:40:09.671Z,16.80
2022-09-22T19:42:39.999Z,18.38
2022-09-22T19:45:08.311Z,28.48
2022-09-22T19:47:35.135Z,18.65
2022-09-22T19:50:01.760Z,15.73
2022-09-22T19:52:28.395Z,19.75
2022-09-22T19:54:54.938Z,23.95
2022-09-22T19:57:21.579Z,21.92
2022-09-22T19:59:48.110Z,16.60
2022-09-22T20:02:15.249Z,16.63
2022-09-22T20:04:43.003Z,13.18
2022-09-22T20:07:11.199Z,17.90
2022-09-22T20:09:38.529Z,10.30
2022-09-22T20:12:05.964Z,10.18
2022-09-22T20:14:32.855Z,11.65
2022-09-22T20:17:05.879Z,12.60
2022-09-22T20:19:34.855Z,12.75
2022-09-22T20:22:27.923Z,10.93
2022-09-22T20:25:00.390Z,8.52
2022-09-22T20:27:32.362Z,11.07
2022-09-22T20:30:00.052Z,8.63
2022-09-22T20:32:29.265Z,11.57
2022-09-22T20:34:55.952Z,11.27
2022-09-22T20:37:24.376Z,13.30
2022-09-22T20:39:51.605Z,9.15
2022-09-22T20:42:18.306Z,11.52
2022-09-22T20:44:45.321Z,12.15
2022-09-22T20:47:15.571Z,12.00
2022-09-22T20:49:42.914Z,11.05
2022-09-22T20:52:16.828Z,9.38
2022-09-22T20:54:44.142Z,10.90
2022-09-22T20:57:11.197Z,15.02
2022-09-22T20:59:38.023Z,14.25
2022-09-22T21:02:04.921Z,9.55
2022-09-22T21:04:31.778Z,10.45
2022-09-22T21:06:58.805Z,24.95
2022-09-22T21:09:44.308Z,15.70
2022-09-22T21:12:13.359Z,14.98
2022-09-22T21:14:45.839Z,13.60
2022-09-22T21:17:13.329Z,20.77
2022-09-22T21:19:40.055Z,24.92
2022-09-22T21:22:06.896Z,17.20
2022-09-22T21:24:34.005Z,15.35
2022-09-22T21:27:00.600Z,14.93
2022-09-22T21:29:28.238Z,13.70
2022-09-22T21:31:55.753Z,13.27
2022-09-22T21:34:22.368Z,13.07
2022-09-22T21:36:49.061Z,12.50
2022-09-22T21:39:15.955Z,15.00
2022-09-22T21:41:42.792Z,14.13
2022-09-22T21:44:09.428Z,12.80
2022-09-22T21:46:40.852Z,8.30
2022-09-22T21:49:08.899Z,11.48
2022-09-22T21:51:44.160Z,11.35
2022-09-22T21:54:18.535Z,13.85
2022-09-22T21:56:46.089Z,9.50
2022-09-22T21:59:13.676Z,13.90
2022-09-22T22:01:42.118Z,9.05
2022-09-22T22:04:09.943Z,10.20
2022-09-22T22:06:42.762Z,10.63
2022-09-22T22:09:12.494Z,11.20
2022-09-22T22:11:49.367Z,11.52
2022-09-22T22:14:19.324Z,15.60
2022-09-22T22:16:48.680Z,9.35
2022-09-22T22:19:19.720Z,10.70
2022-09-22T22:21:48.656Z,13.05
2022-09-22T22:24:31.896Z,17.45
2022-09-22T22:27:07.730Z,9.98
2022-09-22T22:29:34.764Z,16.17
2022-09-22T22:32:02.392Z,11.02
2022-09-22T22:34:28.968Z,11.60
2022-09-22T22:36:56.201Z,8.45
2022-09-22T22:39:22.866Z,12.57
2022-09-22T22:41:49.587Z,7.05
2022-09-22T22:44:17.825Z,9.82
2022-09-22T22:46:45.265Z,6.72
2022-09-22T22:49:11.917Z,9.27
2022-09-22T22:51:43.022Z,6.13
2022-09-22T22:54:11.123Z,4.68
2022-09-22T22:56:41.967Z,6.50
2022-09-22T22:59:10.230Z,3.75
2022-09-22T23:01:37.460Z,4.07
2022-09-22T23:04:07.137Z,6.72
2022-09-22T23:06:39.644Z,3.92
2022-09-22T23:09:09.954Z,3.00
2022-09-22T23:11:39.670Z,3.28
2022-09-22T23:14:08.407Z,2.40
2022-09-22T23:16:43.574Z,3.95
2022-09-22T23:19:16.683Z,7.00
2022-09-22T23:21:44.857Z,6.05
2022-09-22T23:24:15.960Z,8.90
2022-09-22T23:26:43.708Z,2.03
2022-09-22T23:29:10.662Z,5.35
2022-09-22T23:31:37.307Z,2.17
2022-09-22T23:34:03.821Z,2.90
2022-09-22T23:36:30.489Z,5.00
2022-09-22T23:39:03.303Z,5.75
2022-09-22T23:41:31.577Z,2.53
2022-09-22T23:43:58.093Z,2.75
2022-09-22T23:46:24.935Z,4.95
2022-09-22T23:48:51.554Z,2.17
2022-09-22T23:51:19.442Z,3.90
2022-09-22T23:53:46.175Z,5.15
2022-09-22T23:56:13.934Z,2.72
2022-09-22T23:58:40.467Z,1.88
